createdAt,value
2016-07-31T00:00:24.622Z,76.15
2016-07-31T00:01:23.865Z,76.58
2016-07-31T00:02:22.945Z,76.52
2016-07-31T00:03:33.372Z,76.44
2016-07-31T00:04:34.336Z,76.11
2016-07-31T00:05:23.543Z,76.48
2016-07-31T00:06:30.007Z,76.66
2016-07-31T00:07:24.555Z,76.44
2016-07-31T00:08:23.285Z,76.23
2016-07-31T00:09:24.246Z,76.74
2016-07-31T00:10:25.194Z,76.06
2016-07-31T00:11:38.959Z,76.04
2016-07-31T00:12:41.608Z,76.18
2016-07-31T00:13:23.553Z,76.21
2016-07-31T00:14:29.248Z,76.55
2016-07-31T00:15:25.696Z,77.58
2016-07-31T00:16:40.643Z,76.95
2016-07-31T00:17:29.472Z,76.29
2016-07-31T00:18:25.962Z,75.78
2016-07-31T00:19:45.515Z,76.47
2016-07-31T00:20:40.857Z,77.02
2016-07-31T00:21:33.407Z,76.74
2016-07-31T00:22:19.886Z,76.69
2016-07-31T00:23:35.761Z,76.82
2016-07-31T00:24:33.527Z,76.61
2016-07-31T00:25:33.811Z,76.86
2016-07-31T00:26:26.262Z,76.54
2016-07-31T00:27:37.810Z,76.82
2016-07-31T00:28:29.141Z,77.53
2016-07-31T00:29:29.346Z,77.05
2016-07-31T00:30:28.724Z,77.48
2016-07-31T00:31:25.560Z,77.38
2016-07-31T00:32:26.297Z,77.94
2016-07-31T00:33:29.371Z,77.47
2016-07-31T00:34:30.015Z,77.72
2016-07-31T00:35:24.002Z,76.89
2016-07-31T00:36:23.545Z,77.26
2016-07-31T00:37:41.682Z,77.80
2016-07-31T00:38:23.964Z,77.18
2016-07-31T00:39:22.958Z,77.52
2016-07-31T00:40:24.839Z,78.32
2016-07-31T00:41:34.195Z,77.70
2016-07-31T00:42:25.379Z,77.89
2016-07-31T00:43:30.920Z,78.16
2016-07-31T00:44:37.200Z,77.36
2016-07-31T00:46:35.829Z,77.20
2016-07-31T00:47:24.714Z,77.32
2016-07-31T00:48:34.226Z,77.47
2016-07-31T00:49:23.692Z,77.66
2016-07-31T00:50:30.026Z,77.97
2016-07-31T00:51:24.725Z,77.85
2016-07-31T00:52:23.328Z,78.09
2016-07-31T00:53:27.908Z,78.07
2016-07-31T00:54:45.562Z,78.38
2016-07-31T00:55:30.149Z,79.70
2016-07-31T00:56:44.440Z,78.95
2016-07-31T00:57:41.386Z,78.80
2016-07-31T00:58:35.334Z,79.17
2016-07-31T00:59:31.319Z,79.13
2016-07-31T01:00:35.310Z,78.73
2016-07-31T01:01:36.540Z,78.60
2016-07-31T01:02:44.272Z,78.73
2016-07-31T01:03:41.384Z,78.92
2016-07-31T01:04:29.049Z,79.17
2016-07-31T01:05:31.878Z,79.79
2016-07-31T01:06:29.747Z,79.39
2016-07-31T01:07:23.778Z,79.55
2016-07-31T01:08:29.130Z,79.90
2016-07-31T01:09:40.388Z,79.26
2016-07-31T01:10:43.776Z,79.31
2016-07-31T01:11:44.284Z,79.53
2016-07-31T01:12:24.174Z,79.31
2016-07-31T01:13:23.897Z,79.75
2016-07-31T01:14:33.364Z,79.76
2016-07-31T01:15:26.500Z,79.73
2016-07-31T01:16:38.916Z,79.71
2016-07-31T01:17:24.421Z,79.81
2016-07-31T01:18:38.019Z,80.02
2016-07-31T01:19:34.244Z,80.01
2016-07-31T01:20:32.078Z,79.46
2016-07-31T01:21:23.455Z,79.33
2016-07-31T01:22:36.861Z,79.90
2016-07-31T01:23:18.380Z,79.72
2016-07-31T01:24:28.386Z,79.80
2016-07-31T01:25:29.735Z,79.56
2016-07-31T01:26:29.208Z,79.73
2016-07-31T01:27:25.419Z,79.82
2016-07-31T01:28:30.446Z,79.61
2016-07-31T01:30:29.470Z,79.67
2016-07-31T01:31:26.193Z,79.31
2016-07-31T01:32:41.105Z,79.46
2016-07-31T01:33:29.333Z,79.77
2016-07-31T01:34:35.266Z,80.30
2016-07-31T01:35:36.046Z,80.10
2016-07-31T01:36:41.795Z,80.45
2016-07-31T01:37:26.445Z,79.70
2016-07-31T01:38:30.593Z,80.03
2016-07-31T01:39:33.079Z,80.12
2016-07-31T01:40:32.570Z,79.81
2016-07-31T01:41:41.979Z,80.17
2016-07-31T01:42:39.688Z,80.18
2016-07-31T01:43:40.785Z,80.43
2016-07-31T01:44:33.674Z,80.70
2016-07-31T01:45:29.624Z,80.53
2016-07-31T01:46:31.334Z,80.88
2016-07-31T01:47:32.020Z,80.55
2016-07-31T01:48:40.955Z,80.58
2016-07-31T01:49:25.867Z,80.62
2016-07-31T01:50:42.720Z,80.41
2016-07-31T01:51:23.437Z,80.94
2016-07-31T01:52:38.955Z,80.80
2016-07-31T01:53:29.815Z,80.97
2016-07-31T01:54:36.006Z,80.75
2016-07-31T01:55:33.269Z,80.49
2016-07-31T01:56:28.300Z,80.66
2016-07-31T01:57:28.589Z,80.79
2016-07-31T01:58:37.406Z,80.88
2016-07-31T01:59:27.065Z,80.63
2016-07-31T02:00:41.456Z,80.30
2016-07-31T02:01:26.975Z,80.88
2016-07-31T02:02:35.712Z,80.30
2016-07-31T02:03:30.032Z,80.26
2016-07-31T02:04:26.747Z,80.17
2016-07-31T02:05:30.432Z,80.36
2016-07-31T02:06:34.482Z,80.61
2016-07-31T02:07:18.802Z,80.22
2016-07-31T02:08:31.387Z,80.50
2016-07-31T02:09:26.362Z,80.12
2016-07-31T02:10:33.563Z,80.34
2016-07-31T02:11:24.739Z,80.00
2016-07-31T02:12:37.849Z,80.01
2016-07-31T02:13:33.408Z,79.96
2016-07-31T02:14:29.228Z,79.64
2016-07-31T02:15:32.349Z,79.78
2016-07-31T02:16:24.301Z,79.80
2016-07-31T02:17:34.068Z,79.99
2016-07-31T02:18:29.449Z,80.12
2016-07-31T02:19:25.402Z,80.00
2016-07-31T02:20:35.083Z,80.21
2016-07-31T02:21:33.487Z,80.04
2016-07-31T02:22:24.020Z,80.12
2016-07-31T02:23:34.335Z,80.24
2016-07-31T02:25:34.367Z,80.78
2016-07-31T02:26:23.977Z,80.66
2016-07-31T02:27:25.970Z,80.83
2016-07-31T02:28:39.831Z,80.57
2016-07-31T02:30:36.820Z,81.05
2016-07-31T02:31:25.885Z,80.64
2016-07-31T02:32:24.662Z,81.21
2016-07-31T02:33:37.811Z,81.12
2016-07-31T02:34:27.982Z,80.86
2016-07-31T02:35:30.679Z,81.18
2016-07-31T02:36:30.930Z,81.33
2016-07-31T02:37:26.348Z,81.51
2016-07-31T02:38:23.357Z,81.79
2016-07-31T02:40:32.341Z,82.00
2016-07-31T02:41:30.190Z,81.81
2016-07-31T02:42:24.274Z,81.18
2016-07-31T02:43:32.960Z,81.49
2016-07-31T02:45:31.182Z,82.05
2016-07-31T02:46:31.395Z,81.50
2016-07-31T02:47:39.506Z,81.72
2016-07-31T02:48:32.854Z,81.20
2016-07-31T02:49:34.330Z,81.83
2016-07-31T02:50:43.102Z,82.32
2016-07-31T02:51:29.325Z,82.15
2016-07-31T02:52:29.312Z,82.01
2016-07-31T02:53:34.542Z,82.09
2016-07-31T02:54:25.015Z,81.78
2016-07-31T02:55:34.199Z,81.68
2016-07-31T02:57:35.252Z,82.48
2016-07-31T02:58:35.915Z,82.26
2016-07-31T02:59:24.102Z,82.06
2016-07-31T03:00:38.734Z,81.84
2016-07-31T03:01:35.740Z,81.99
2016-07-31T03:02:33.870Z,82.34
2016-07-31T03:03:29.997Z,82.50
2016-07-31T03:04:31.049Z,82.52
2016-07-31T03:05:24.331Z,82.22
2016-07-31T03:06:42.807Z,82.57
2016-07-31T03:07:31.844Z,82.22
2016-07-31T03:08:45.395Z,82.41
2016-07-31T03:09:28.077Z,82.39
2016-07-31T03:10:31.152Z,82.44
2016-07-31T03:11:43.562Z,82.60
2016-07-31T03:12:32.354Z,82.39
2016-07-31T03:14:25.464Z,82.42
2016-07-31T03:15:23.727Z,83.08
2016-07-31T03:16:33.384Z,83.17
2016-07-31T03:17:37.516Z,82.69
2016-07-31T03:18:35.241Z,82.90
2016-07-31T03:19:28.923Z,82.63
2016-07-31T03:20:25.073Z,83.13
2016-07-31T03:21:25.287Z,82.92
2016-07-31T03:22:29.171Z,84.31
2016-07-31T03:23:32.381Z,83.59
2016-07-31T03:24:27.688Z,83.11
2016-07-31T03:26:42.626Z,82.56
2016-07-31T03:29:34.266Z,82.78
2016-07-31T03:30:31.790Z,82.50
2016-07-31T03:31:31.107Z,82.79
2016-07-31T03:32:39.746Z,82.39
2016-07-31T03:33:32.803Z,82.15
2016-07-31T03:34:44.235Z,82.19
2016-07-31T03:35:33.728Z,82.35
2016-07-31T03:36:29.312Z,82.28
2016-07-31T03:37:33.708Z,82.21
2016-07-31T03:38:28.009Z,82.79
2016-07-31T03:39:35.994Z,82.81
2016-07-31T03:40:47.956Z,82.53
2016-07-31T03:41:30.358Z,82.54
2016-07-31T03:42:32.529Z,82.13
2016-07-31T03:43:24.521Z,82.69
2016-07-31T03:44:31.607Z,82.82
2016-07-31T03:45:31.289Z,82.87
2016-07-31T03:46:33.637Z,82.89
2016-07-31T03:47:34.873Z,82.30
2016-07-31T03:48:31.085Z,82.43
2016-07-31T03:49:26.243Z,81.92
2016-07-31T03:50:24.325Z,82.36
2016-07-31T03:51:23.706Z,82.52
2016-07-31T03:52:39.983Z,82.58
2016-07-31T03:53:47.980Z,83.38
2016-07-31T03:54:27.005Z,83.17
2016-07-31T03:55:25.950Z,83.41
2016-07-31T03:56:42.272Z,82.83
2016-07-31T03:57:32.394Z,82.66
2016-07-31T03:58:24.444Z,82.35
2016-07-31T03:59:31.327Z,82.90
2016-07-31T04:00:29.690Z,83.16
2016-07-31T04:01:28.492Z,82.83
2016-07-31T04:02:38.767Z,83.00
2016-07-31T04:03:33.857Z,82.77
2016-07-31T04:04:28.471Z,83.23
2016-07-31T04:05:39.586Z,83.61
2016-07-31T04:06:29.011Z,83.66
2016-07-31T04:07:23.934Z,83.24
2016-07-31T04:08:32.230Z,83.41
2016-07-31T04:09:35.560Z,83.69
2016-07-31T04:10:23.191Z,83.32
2016-07-31T04:11:31.578Z,83.13
2016-07-31T04:12:33.462Z,82.70
2016-07-31T04:14:29.067Z,83.10
2016-07-31T04:15:30.728Z,83.16
2016-07-31T04:16:29.427Z,83.34
2016-07-31T04:17:28.779Z,83.21
2016-07-31T04:18:36.271Z,83.67
2016-07-31T04:19:29.224Z,83.28
2016-07-31T04:20:29.444Z,83.16
2016-07-31T04:21:25.444Z,82.84
2016-07-31T04:22:40.620Z,82.99
2016-07-31T04:23:27.330Z,82.62
2016-07-31T04:24:29.213Z,82.11
2016-07-31T04:25:35.469Z,81.06
2016-07-31T04:26:41.344Z,81.86
2016-07-31T04:27:33.494Z,81.77
2016-07-31T04:28:28.082Z,81.19
2016-07-31T04:29:43.664Z,80.37
2016-07-31T04:30:30.159Z,81.28
2016-07-31T04:31:34.851Z,81.39
2016-07-31T04:32:30.801Z,80.87
2016-07-31T04:33:30.314Z,81.38
2016-07-31T04:34:31.164Z,81.38
2016-07-31T04:35:29.773Z,81.52
2016-07-31T04:36:27.367Z,82.22
2016-07-31T04:37:37.218Z,81.59
2016-07-31T04:38:40.371Z,80.96
2016-07-31T04:39:30.853Z,80.51
2016-07-31T04:40:24.819Z,81.06
2016-07-31T04:41:29.757Z,80.65
2016-07-31T04:42:28.735Z,80.70
2016-07-31T04:43:32.255Z,79.90
2016-07-31T04:44:33.832Z,80.25
2016-07-31T04:45:47.306Z,79.55
2016-07-31T04:46:27.336Z,78.87
2016-07-31T04:47:33.860Z,78.95
2016-07-31T04:48:35.694Z,79.04
2016-07-31T04:49:23.762Z,79.26
2016-07-31T04:50:28.571Z,79.25
2016-07-31T04:51:42.541Z,79.45
2016-07-31T04:52:33.276Z,79.37
2016-07-31T04:53:32.276Z,78.22
2016-07-31T04:54:33.848Z,78.63
2016-07-31T04:55:26.944Z,78.01
2016-07-31T04:56:40.238Z,77.21
2016-07-31T04:57:32.505Z,76.55
2016-07-31T04:58:33.592Z,76.87
2016-07-31T04:59:29.118Z,76.71
2016-07-31T05:00:33.372Z,76.96
2016-07-31T05:02:19.137Z,77.24
2016-07-31T05:03:24.272Z,77.09
2016-07-31T05:04:31.304Z,77.02
2016-07-31T05:05:30.758Z,76.80
2016-07-31T05:06:30.954Z,77.25
2016-07-31T05:07:39.435Z,77.10
2016-07-31T05:08:35.104Z,76.85
2016-07-31T05:09:29.938Z,76.31
2016-07-31T05:10:31.176Z,76.22
2016-07-31T05:11:33.217Z,76.30
2016-07-31T05:12:23.211Z,76.52
2016-07-31T05:14:21.874Z,76.16
2016-07-31T05:15:43.088Z,77.10
2016-07-31T05:16:43.957Z,77.26
2016-07-31T05:17:32.903Z,76.59
2016-07-31T05:18:29.172Z,76.24
2016-07-31T05:19:29.379Z,76.45
2016-07-31T05:20:25.982Z,76.17
2016-07-31T05:21:31.861Z,75.81
2016-07-31T05:22:25.586Z,76.84
2016-07-31T05:23:37.144Z,75.89
2016-07-31T05:24:28.611Z,76.60
2016-07-31T05:25:38.206Z,76.79
2016-07-31T05:26:36.461Z,76.46
2016-07-31T05:27:25.054Z,76.52
2016-07-31T05:28:28.583Z,76.37
2016-07-31T05:30:34.296Z,76.62
2016-07-31T05:31:44.576Z,75.25
2016-07-31T05:32:30.060Z,75.07
2016-07-31T05:33:33.620Z,75.67
2016-07-31T05:34:35.498Z,76.47
2016-07-31T05:35:29.653Z,76.74
2016-07-31T05:36:32.535Z,76.69
2016-07-31T05:37:27.882Z,76.77
2016-07-31T05:38:44.087Z,76.67
2016-07-31T05:39:29.324Z,77.43
2016-07-31T05:40:29.432Z,78.97
2016-07-31T05:41:35.941Z,78.32
2016-07-31T05:42:23.719Z,79.06
2016-07-31T05:43:30.414Z,77.57
2016-07-31T05:44:23.498Z,77.66
2016-07-31T05:45:29.813Z,77.89
2016-07-31T05:46:25.626Z,76.70
2016-07-31T05:47:40.749Z,76.45
2016-07-31T05:48:27.632Z,77.04
2016-07-31T05:49:27.237Z,77.87
2016-07-31T05:50:30.283Z,79.15
2016-07-31T05:53:35.035Z,79.05
2016-07-31T05:54:28.813Z,79.03
2016-07-31T05:55:31.910Z,78.15
2016-07-31T05:56:24.834Z,77.96
2016-07-31T05:59:46.071Z,79.26
2016-07-31T06:00:28.216Z,79.63
2016-07-31T06:01:43.489Z,80.08
2016-07-31T06:02:44.224Z,80.40
2016-07-31T06:03:25.037Z,79.71
2016-07-31T06:04:32.847Z,80.11
2016-07-31T06:05:23.334Z,79.67
2016-07-31T06:06:24.100Z,79.29
2016-07-31T06:07:23.966Z,79.46
2016-07-31T06:08:29.838Z,79.06
2016-07-31T06:09:41.824Z,80.07
2016-07-31T06:10:33.476Z,79.64
2016-07-31T06:11:35.459Z,79.57
2016-07-31T06:12:40.403Z,79.48
2016-07-31T06:13:29.436Z,79.89
2016-07-31T06:14:34.677Z,80.28
2016-07-31T06:15:29.128Z,79.75
2016-07-31T06:16:33.789Z,79.42
2016-07-31T06:17:33.315Z,79.27
2016-07-31T06:18:22.696Z,79.93
2016-07-31T06:19:23.845Z,79.83
2016-07-31T06:20:35.980Z,79.49
2016-07-31T06:21:45.931Z,78.61
2016-07-31T06:22:28.315Z,78.35
2016-07-31T06:23:23.767Z,77.93
2016-07-31T06:24:36.300Z,78.33
2016-07-31T06:25:31.728Z,78.17
2016-07-31T06:26:23.568Z,77.38
2016-07-31T06:27:43.943Z,76.60
2016-07-31T06:28:55.810Z,76.47
2016-07-31T06:29:41.373Z,76.23
2016-07-31T06:30:24.626Z,75.99
2016-07-31T06:31:25.624Z,76.05
2016-07-31T06:32:36.486Z,76.76
2016-07-31T06:33:59.358Z,78.20
2016-07-31T06:34:25.639Z,77.45
2016-07-31T06:35:25.904Z,76.12
2016-07-31T06:36:37.030Z,75.69
2016-07-31T06:37:41.606Z,76.06
2016-07-31T06:38:32.260Z,76.44
2016-07-31T06:39:37.608Z,77.25
2016-07-31T06:40:39.112Z,77.75
2016-07-31T06:41:33.236Z,77.06
2016-07-31T06:42:40.066Z,76.81
2016-07-31T06:43:26.070Z,76.87
2016-07-31T06:44:36.442Z,77.81
2016-07-31T06:45:30.253Z,77.89
2016-07-31T06:46:39.777Z,77.87
2016-07-31T06:47:38.343Z,77.06
2016-07-31T06:48:33.700Z,77.60
2016-07-31T06:49:36.859Z,77.96
2016-07-31T06:50:28.047Z,77.28
2016-07-31T06:51:25.154Z,78.42
2016-07-31T06:52:27.674Z,78.78
2016-07-31T06:53:30.603Z,78.22
2016-07-31T06:54:33.832Z,75.89
2016-07-31T06:56:24.772Z,76.46
2016-07-31T06:57:23.663Z,76.09
2016-07-31T06:58:26.712Z,73.82
2016-07-31T06:59:42.007Z,73.78
2016-07-31T07:00:23.802Z,74.61
2016-07-31T07:01:23.288Z,74.92
2016-07-31T07:02:45.006Z,75.92
2016-07-31T07:03:36.783Z,76.83
2016-07-31T07:04:25.121Z,76.87
2016-07-31T07:05:33.849Z,74.16
2016-07-31T07:06:27.085Z,74.87
2016-07-31T07:07:38.182Z,74.15
2016-07-31T07:08:50.804Z,72.50
2016-07-31T07:09:32.266Z,73.14
2016-07-31T07:10:25.793Z,72.94
2016-07-31T07:11:30.083Z,73.53
2016-07-31T07:12:23.594Z,74.50
2016-07-31T07:13:34.678Z,73.54
2016-07-31T07:15:37.903Z,73.26
2016-07-31T07:16:24.019Z,72.77
2016-07-31T07:17:27.881Z,71.87
2016-07-31T07:18:36.667Z,71.56
2016-07-31T07:19:58.662Z,72.17
2016-07-31T07:20:27.369Z,72.28
2016-07-31T07:21:33.149Z,72.56
2016-07-31T07:22:23.253Z,72.09
2016-07-31T07:23:32.312Z,71.56
2016-07-31T07:24:27.891Z,71.46
2016-07-31T07:25:41.266Z,70.58
2016-07-31T07:26:26.403Z,71.69
2016-07-31T07:27:25.145Z,71.86
2016-07-31T07:28:25.923Z,73.39
2016-07-31T07:30:26.074Z,74.36
2016-07-31T07:31:31.418Z,74.55
2016-07-31T07:32:32.395Z,74.73
2016-07-31T07:33:42.348Z,74.41
2016-07-31T07:34:33.330Z,74.15
2016-07-31T07:35:29.237Z,74.79
2016-07-31T07:36:24.178Z,72.71
2016-07-31T07:37:34.113Z,72.94
2016-07-31T07:38:36.268Z,73.14
2016-07-31T07:39:30.506Z,73.77
2016-07-31T07:40:30.572Z,74.58
2016-07-31T07:41:32.659Z,74.37
2016-07-31T07:42:41.607Z,74.31
2016-07-31T07:43:23.246Z,75.42
2016-07-31T07:44:19.615Z,75.50
2016-07-31T07:45:32.306Z,75.40
2016-07-31T07:46:24.781Z,75.32
2016-07-31T07:47:27.036Z,76.12
2016-07-31T07:48:32.710Z,77.19
2016-07-31T07:49:35.442Z,76.57
2016-07-31T07:50:23.791Z,76.58
2016-07-31T07:51:26.640Z,76.91
2016-07-31T07:52:28.043Z,75.83
2016-07-31T07:53:23.070Z,77.99
2016-07-31T07:54:31.180Z,76.23
2016-07-31T07:55:32.316Z,76.10
2016-07-31T07:56:33.933Z,76.27
2016-07-31T07:57:25.997Z,76.24
2016-07-31T07:58:38.134Z,76.40
2016-07-31T08:00:30.173Z,77.38
2016-07-31T08:01:34.949Z,76.93
2016-07-31T08:02:38.980Z,77.31
2016-07-31T08:03:45.313Z,77.32
2016-07-31T08:04:33.695Z,78.03
2016-07-31T08:05:31.789Z,78.08
2016-07-31T08:06:33.336Z,78.33
2016-07-31T08:07:47.925Z,79.23
2016-07-31T08:08:36.014Z,79.67
2016-07-31T08:09:35.411Z,81.74
2016-07-31T08:10:41.266Z,81.91
2016-07-31T08:11:39.236Z,80.79
2016-07-31T08:14:26.221Z,82.49
2016-07-31T08:15:32.003Z,82.90
2016-07-31T08:16:27.191Z,82.38
2016-07-31T08:17:33.960Z,82.64
2016-07-31T08:19:35.318Z,84.21
2016-07-31T08:20:33.348Z,84.72
2016-07-31T08:21:24.590Z,83.91
2016-07-31T08:22:45.795Z,85.03
2016-07-31T08:24:26.886Z,86.16
2016-07-31T08:25:44.109Z,87.53
2016-07-31T08:26:41.301Z,86.85
2016-07-31T08:27:32.350Z,86.93
2016-07-31T08:28:18.378Z,87.19
2016-07-31T08:29:24.304Z,86.95
2016-07-31T08:30:24.713Z,87.98
2016-07-31T08:31:33.506Z,88.05
2016-07-31T08:32:23.415Z,88.74
2016-07-31T08:33:45.368Z,88.35
2016-07-31T08:34:37.790Z,87.16
2016-07-31T08:37:30.251Z,87.94
2016-07-31T08:38:31.305Z,87.84
2016-07-31T08:40:30.192Z,89.70
2016-07-31T08:41:39.396Z,90.55
2016-07-31T08:42:33.241Z,89.00
2016-07-31T08:43:24.666Z,89.01
2016-07-31T08:45:34.149Z,90.30
2016-07-31T08:46:35.431Z,90.86
2016-07-31T08:47:23.594Z,90.66
2016-07-31T08:48:33.778Z,89.91
2016-07-31T08:49:23.899Z,90.17
2016-07-31T08:50:25.827Z,90.82
2016-07-31T08:52:20.898Z,90.66
2016-07-31T08:53:31.882Z,89.21
2016-07-31T08:54:36.431Z,90.86
2016-07-31T08:55:26.532Z,89.98
2016-07-31T08:57:45.799Z,90.51
2016-07-31T08:58:34.619Z,89.74
2016-07-31T08:59:31.244Z,90.65
2016-07-31T09:00:37.632Z,89.51
2016-07-31T09:01:30.245Z,90.20
2016-07-31T09:02:44.747Z,89.44
2016-07-31T09:03:32.718Z,90.77
2016-07-31T09:04:29.880Z,90.96
2016-07-31T09:05:50.466Z,90.47
2016-07-31T09:06:34.789Z,91.12
2016-07-31T09:08:24.366Z,91.23
2016-07-31T09:09:40.078Z,91.32
2016-07-31T09:10:39.737Z,91.34
2016-07-31T09:11:37.060Z,91.64
2016-07-31T09:12:39.177Z,91.96
2016-07-31T09:14:26.125Z,91.98
2016-07-31T09:15:34.915Z,91.07
2016-07-31T09:16:18.920Z,91.29
2016-07-31T09:17:36.835Z,92.07
2016-07-31T09:18:37.147Z,92.07
2016-07-31T09:19:22.967Z,91.51
2016-07-31T09:20:39.046Z,91.94
2016-07-31T09:23:21.666Z,92.76
2016-07-31T09:24:29.155Z,91.62
2016-07-31T09:25:26.877Z,92.57
2016-07-31T09:27:28.967Z,91.36
2016-07-31T09:29:34.082Z,92.08
2016-07-31T09:30:38.133Z,89.63
2016-07-31T09:31:35.692Z,90.73
2016-07-31T09:32:18.678Z,91.14
2016-07-31T09:33:28.225Z,92.03
2016-07-31T09:34:24.229Z,90.51
2016-07-31T09:35:30.150Z,90.24
2016-07-31T09:36:24.994Z,89.74
2016-07-31T09:38:42.181Z,91.16
2016-07-31T09:39:39.896Z,90.24
2016-07-31T09:40:34.759Z,90.58
2016-07-31T09:41:31.095Z,91.19
2016-07-31T09:43:36.797Z,91.80
2016-07-31T09:44:18.720Z,92.47
2016-07-31T09:45:32.781Z,91.80
2016-07-31T09:46:45.724Z,91.27
2016-07-31T09:47:38.220Z,92.36
2016-07-31T09:48:34.073Z,91.59
2016-07-31T09:49:26.563Z,91.39
2016-07-31T09:50:33.320Z,91.88
2016-07-31T09:51:39.924Z,92.73
2016-07-31T09:52:50.447Z,91.92
2016-07-31T09:53:43.249Z,92.43
2016-07-31T09:54:35.677Z,91.99
2016-07-31T09:55:35.355Z,92.01
2016-07-31T09:56:43.199Z,92.14
2016-07-31T09:57:40.490Z,91.60
2016-07-31T09:58:31.276Z,91.72
2016-07-31T09:59:26.506Z,90.24
2016-07-31T10:00:29.949Z,91.24
2016-07-31T10:01:25.338Z,91.61
2016-07-31T10:02:40.574Z,91.25
2016-07-31T10:03:24.592Z,91.24
2016-07-31T10:04:44.730Z,91.60
2016-07-31T10:05:24.489Z,92.68
2016-07-31T10:06:23.994Z,92.47
2016-07-31T10:07:25.973Z,92.84
2016-07-31T10:08:36.861Z,92.86
2016-07-31T10:09:25.236Z,91.78
2016-07-31T10:10:29.586Z,92.48
2016-07-31T10:11:16.840Z,92.48
2016-07-31T10:12:31.565Z,92.48
2016-07-31T10:13:45.390Z,92.57
2016-07-31T10:14:28.391Z,93.01
2016-07-31T10:15:39.337Z,93.47
2016-07-31T10:16:42.925Z,92.83
2016-07-31T10:17:46.925Z,93.00
2016-07-31T10:18:28.239Z,93.56
2016-07-31T10:19:18.136Z,92.62
2016-07-31T10:20:24.329Z,93.45
2016-07-31T10:21:28.761Z,93.28
2016-07-31T10:22:33.983Z,93.15
2016-07-31T10:23:20.139Z,93.69
2016-07-31T10:24:29.904Z,92.79
2016-07-31T10:25:41.197Z,92.84
2016-07-31T10:26:42.738Z,93.02
2016-07-31T10:27:37.291Z,92.34
2016-07-31T10:28:40.164Z,93.32
2016-07-31T10:30:44.271Z,92.83
2016-07-31T10:31:40.496Z,93.76
2016-07-31T10:32:23.760Z,92.68
2016-07-31T10:33:38.370Z,93.26
2016-07-31T10:34:31.824Z,92.96
2016-07-31T10:35:32.550Z,92.68
2016-07-31T10:36:30.319Z,92.85
2016-07-31T10:37:41.060Z,93.38
2016-07-31T10:38:39.076Z,92.00
2016-07-31T10:39:27.050Z,91.34
2016-07-31T10:40:42.823Z,90.97
2016-07-31T10:42:29.227Z,91.27
2016-07-31T10:43:39.780Z,91.30
2016-07-31T10:44:32.600Z,92.51
2016-07-31T10:45:24.672Z,91.36
2016-07-31T10:46:38.441Z,92.36
2016-07-31T10:47:34.614Z,92.11
2016-07-31T10:48:30.520Z,92.30
2016-07-31T10:49:29.642Z,91.83
2016-07-31T10:50:40.621Z,91.40
2016-07-31T10:51:31.827Z,91.88
2016-07-31T10:52:30.604Z,92.53
2016-07-31T10:53:35.240Z,92.62
2016-07-31T10:54:34.881Z,92.39
2016-07-31T10:55:40.073Z,92.61
2016-07-31T10:56:49.970Z,92.40
2016-07-31T10:57:34.747Z,92.86
2016-07-31T10:58:37.160Z,92.68
2016-07-31T10:59:42.127Z,92.09
2016-07-31T11:03:39.375Z,92.08
2016-07-31T11:04:30.223Z,91.01
2016-07-31T11:05:23.720Z,90.50
2016-07-31T11:06:30.199Z,90.90
2016-07-31T11:07:37.480Z,90.28
2016-07-31T11:08:37.970Z,90.94
2016-07-31T11:09:31.274Z,92.75
2016-07-31T11:10:23.973Z,92.29
2016-07-31T11:11:39.921Z,92.08
2016-07-31T11:12:23.985Z,92.50
2016-07-31T11:13:45.160Z,90.94
2016-07-31T11:14:51.434Z,89.76
2016-07-31T11:16:26.499Z,89.60
2016-07-31T11:17:31.557Z,90.38
2016-07-31T11:18:28.053Z,90.46
2016-07-31T11:19:27.691Z,90.45
2016-07-31T11:20:23.484Z,91.00
2016-07-31T11:21:28.041Z,90.21
2016-07-31T11:22:24.864Z,90.75
2016-07-31T11:23:24.093Z,91.07
2016-07-31T11:24:30.019Z,91.20
2016-07-31T11:25:23.022Z,91.28
2016-07-31T11:26:17.668Z,91.79
2016-07-31T11:27:23.153Z,92.17
2016-07-31T11:28:32.530Z,91.23
2016-07-31T11:29:30.288Z,91.33
2016-07-31T11:30:37.871Z,91.81
2016-07-31T11:31:39.171Z,91.22
2016-07-31T11:33:33.366Z,91.70
2016-07-31T11:35:35.990Z,92.28
2016-07-31T11:36:26.949Z,92.06
2016-07-31T11:37:34.036Z,91.21
2016-07-31T11:38:18.811Z,91.17
2016-07-31T11:39:39.877Z,91.67
2016-07-31T11:40:34.546Z,90.88
2016-07-31T11:41:29.048Z,91.73
2016-07-31T11:42:35.814Z,91.77
2016-07-31T11:43:26.343Z,91.78
2016-07-31T11:44:44.757Z,91.59
2016-07-31T11:46:28.877Z,92.48
2016-07-31T11:47:34.540Z,92.67
2016-07-31T11:48:31.555Z,92.57
2016-07-31T11:49:25.865Z,91.79
2016-07-31T11:50:33.835Z,91.48
2016-07-31T11:51:25.899Z,90.74
2016-07-31T11:52:32.051Z,91.69
2016-07-31T11:53:29.270Z,92.60
2016-07-31T11:54:26.499Z,93.68
2016-07-31T11:55:29.689Z,93.40
2016-07-31T11:56:18.021Z,93.01
2016-07-31T11:57:32.992Z,93.08
2016-07-31T11:58:23.446Z,92.83
2016-07-31T11:59:28.381Z,91.67
2016-07-31T12:00:26.193Z,92.88
2016-07-31T12:01:46.200Z,92.85
2016-07-31T12:02:28.076Z,92.18
2016-07-31T12:03:31.900Z,93.41
2016-07-31T12:04:29.897Z,92.65
2016-07-31T12:05:30.060Z,92.75
2016-07-31T12:06:34.806Z,92.90
2016-07-31T12:07:22.582Z,90.80
2016-07-31T12:08:29.139Z,92.15
2016-07-31T12:09:23.538Z,91.91
2016-07-31T12:10:48.555Z,91.12
2016-07-31T12:11:48.971Z,91.67
2016-07-31T12:12:33.836Z,91.42
2016-07-31T12:13:32.101Z,92.82
2016-07-31T12:16:42.219Z,89.70
2016-07-31T12:17:23.927Z,90.82
2016-07-31T12:18:33.029Z,90.50
2016-07-31T12:19:30.058Z,89.43
2016-07-31T12:20:31.498Z,91.65
2016-07-31T12:21:31.087Z,91.25
2016-07-31T12:22:24.179Z,90.70
2016-07-31T12:23:25.191Z,89.38
2016-07-31T12:24:33.038Z,89.75
2016-07-31T12:25:30.824Z,90.73
2016-07-31T12:26:35.063Z,89.93
2016-07-31T12:27:35.248Z,90.59
2016-07-31T12:28:29.049Z,89.28
2016-07-31T12:30:26.113Z,88.79
2016-07-31T12:31:30.582Z,88.64
2016-07-31T12:32:33.665Z,87.99
2016-07-31T12:33:37.920Z,88.93
2016-07-31T12:34:33.460Z,88.69
2016-07-31T12:35:30.622Z,89.58
2016-07-31T12:36:28.315Z,89.50
2016-07-31T12:37:24.806Z,86.31
2016-07-31T12:38:34.818Z,86.85
2016-07-31T12:39:43.727Z,86.49
2016-07-31T12:40:24.726Z,87.69
2016-07-31T12:41:26.760Z,88.26
2016-07-31T12:42:23.689Z,88.47
2016-07-31T12:43:31.574Z,89.97
2016-07-31T12:44:24.229Z,87.91
2016-07-31T12:45:32.855Z,87.71
2016-07-31T12:46:24.336Z,87.78
2016-07-31T12:47:44.702Z,87.46
2016-07-31T12:48:39.663Z,87.13
2016-07-31T12:49:41.498Z,87.42
2016-07-31T12:50:39.003Z,86.65
2016-07-31T12:51:35.435Z,86.45
2016-07-31T12:52:35.859Z,86.92
2016-07-31T12:53:46.224Z,86.71
2016-07-31T12:54:37.302Z,86.83
2016-07-31T12:55:33.603Z,86.88
2016-07-31T12:56:33.637Z,87.43
2016-07-31T12:57:34.192Z,87.48
2016-07-31T12:58:34.847Z,87.04
2016-07-31T13:00:32.437Z,87.04
2016-07-31T13:01:18.943Z,86.44
2016-07-31T13:02:44.214Z,86.51
2016-07-31T13:03:24.227Z,85.77
2016-07-31T13:04:31.625Z,85.79
2016-07-31T13:05:43.666Z,83.89
2016-07-31T13:06:34.688Z,83.84
2016-07-31T13:07:24.742Z,84.25
2016-07-31T13:08:29.751Z,84.26
2016-07-31T13:09:30.144Z,83.98
2016-07-31T13:10:24.003Z,82.96
2016-07-31T13:11:33.706Z,81.19
2016-07-31T13:12:34.572Z,81.13
2016-07-31T13:13:24.865Z,81.61
2016-07-31T13:14:34.395Z,81.83
2016-07-31T13:15:47.015Z,81.77
2016-07-31T13:16:37.479Z,82.20
2016-07-31T13:17:30.724Z,82.19
2016-07-31T13:18:23.782Z,82.40
2016-07-31T13:19:35.294Z,82.28
2016-07-31T13:20:25.188Z,82.32
2016-07-31T13:21:31.942Z,82.98
2016-07-31T13:22:30.873Z,84.82
2016-07-31T13:23:34.161Z,85.25
2016-07-31T13:24:40.187Z,85.13
2016-07-31T13:25:33.279Z,86.05
2016-07-31T13:26:25.158Z,86.12
2016-07-31T13:27:25.919Z,86.29
2016-07-31T13:28:27.811Z,86.01
2016-07-31T13:29:37.015Z,84.64
2016-07-31T13:30:38.706Z,85.45
2016-07-31T13:31:24.850Z,86.34
2016-07-31T13:32:24.728Z,84.97
2016-07-31T13:33:29.321Z,84.25
2016-07-31T13:34:32.700Z,84.79
2016-07-31T13:35:29.703Z,84.04
2016-07-31T13:39:31.072Z,83.49
2016-07-31T13:40:39.310Z,82.99
2016-07-31T13:41:36.895Z,83.81
2016-07-31T13:42:33.663Z,83.20
2016-07-31T13:43:31.878Z,82.95
2016-07-31T13:44:33.094Z,83.55
2016-07-31T13:45:29.710Z,83.60
2016-07-31T13:46:40.627Z,83.35
2016-07-31T13:47:37.359Z,83.25
2016-07-31T13:48:38.944Z,82.24
2016-07-31T13:49:21.189Z,82.05